sensor_id;sensor_type;location;lat;lon;timestamp;P1;durP1;ratioP1;P2;durP2;ratioP2
21254;SDS011;10785;50.674;17.954;2023-04-01T00:16:49;0.90;;;0.90;;
21254;SDS011;10785;50.674;17.954;2023-04-01T00:19:17;1.10;;;1.10;;
21254;SDS011;10785;50.674;17.954;2023-04-01T00:21:46;1.40;;;1.35;;
21254;SDS011;10785;50.674;17.954;2023-04-01T00:24:14;10.63;;;1.65;;
21254;SDS011;10785;50.674;17.954;2023-04-01T00:26:44;1.75;;;1.65;;
21254;SDS011;10785;50.674;17.954;2023-04-01T00:29:14;2.95;;;1.77;;
21254;SDS011;10785;50.674;17.954;2023-04-01T00:31:42;0.70;;;0.70;;
21254;SDS011;10785;50.674;17.954;2023-04-01T00:34:19;1.67;;;1.58;;
21254;SDS011;10785;50.674;17.954;2023-04-01T00:36:48;1.63;;;1.52;;
21254;SDS011;10785;50.674;17.954;2023-04-01T00:39:16;1.40;;;1.30;;
21254;SDS011;10785;50.674;17.954;2023-04-01T00:41:45;1.40;;;1.30;;
21254;SDS011;10785;50.674;17.954;2023-04-01T00:44:15;1.45;;;1.15;;
21254;SDS011;10785;50.674;17.954;2023-04-01T00:46:46;0.93;;;0.93;;
21254;SDS011;10785;50.674;17.954;2023-04-01T01:38:15;1.00;;;1.00;;
21254;SDS011;10785;50.674;17.954;2023-04-01T01:40:53;1.80;;;1.70;;
21254;SDS011;10785;50.674;17.954;2023-04-01T01:43:26;0.90;;;0.90;;
21254;SDS011;10785;50.674;17.954;2023-04-01T01:45:59;1.58;;;1.48;;
21254;SDS011;10785;50.674;17.954;2023-04-01T01:48:31;1.13;;;1.08;;
21254;SDS011;10785;50.674;17.954;2023-04-01T01:51:01;1.08;;;1.08;;
21254;SDS011;10785;50.674;17.954;2023-04-01T01:53:32;1.10;;;1.10;;
21254;SDS011;10785;50.674;17.954;2023-04-01T01:56:01;1.20;;;1.10;;
21254;SDS011;10785;50.674;17.954;2023-04-01T01:58:36;2.25;;;1.75;;
21254;SDS011;10785;50.674;17.954;2023-04-01T02:01:11;1.08;;;1.08;;
21254;SDS011;10785;50.674;17.954;2023-04-01T02:03:43;2.72;;;2.13;;
21254;SDS011;10785;50.674;17.954;2023-04-01T02:06:14;1.13;;;1.13;;
21254;SDS011;10785;50.674;17.954;2023-04-01T02:08:47;3.30;;;1.40;;
21254;SDS011;10785;50.674;17.954;2023-04-01T02:11:21;1.85;;;1.65;;
21254;SDS011;10785;50.674;17.954;2023-04-01T02:13:55;0.90;;;0.90;;
21254;SDS011;10785;50.674;17.954;2023-04-01T02:16:49;3.75;;;1.58;;
21254;SDS011;10785;50.674;17.954;2023-04-01T02:19:21;0.85;;;0.85;;
21254;SDS011;10785;50.674;17.954;2023-04-01T02:21:54;0.82;;;0.82;;
21254;SDS011;10785;50.674;17.954;2023-04-01T02:24:28;1.02;;;1.02;;
21254;SDS011;10785;50.674;17.954;2023-04-01T02:26:59;1.00;;;1.00;;
21254;SDS011;10785;50.674;17.954;2023-04-01T02:29:30;0.80;;;0.80;;
21254;SDS011;10785;50.674;17.954;2023-04-01T02:31:58;2.20;;;2.00;;
21254;SDS011;10785;50.674;17.954;2023-04-01T02:34:28;2.72;;;2.53;;
21254;SDS011;10785;50.674;17.954;2023-04-01T02:36:58;1.73;;;1.50;;
21254;SDS011;10785;50.674;17.954;2023-04-01T02:39:28;1.17;;;1.13;;
21254;SDS011;10785;50.674;17.954;2023-04-01T02:41:57;1.65;;;1.55;;
21254;SDS011;10785;50.674;17.954;2023-04-01T02:44:26;3.03;;;2.10;;
21254;SDS011;10785;50.674;17.954;2023-04-01T02:46:54;1.05;;;1.05;;
21254;SDS011;10785;50.674;17.954;2023-04-01T02:49:26;1.17;;;1.15;;
21254;SDS011;10785;50.674;17.954;2023-04-01T02:51:55;0.88;;;0.88;;
21254;SDS011;10785;50.674;17.954;2023-04-01T02:54:23;0.93;;;0.93;;
21254;SDS011;10785;50.674;17.954;2023-04-01T02:56:53;1.02;;;1.02;;
21254;SDS011;10785;50.674;17.954;2023-04-01T02:59:23;2.90;;;1.98;;
21254;SDS011;10785;50.674;17.954;2023-04-01T03:01:51;2.10;;;2.00;;
21254;SDS011;10785;50.674;17.954;2023-04-01T03:04:20;1.17;;;1.10;;
21254;SDS011;10785;50.674;17.954;2023-04-01T03:06:48;0.85;;;0.85;;
21254;SDS011;10785;50.674;17.954;2023-04-01T03:09:18;1.02;;;1.02;;
21254;SDS011;10785;50.674;17.954;2023-04-01T03:11:46;1.88;;;1.65;;
21254;SDS011;10785;50.674;17.954;2023-04-01T03:14:16;1.25;;;1.25;;
21254;SDS011;10785;50.674;17.954;2023-04-01T03:16:45;1.23;;;1.15;;
21254;SDS011;10785;50.674;17.954;2023-04-01T03:19:14;4.57;;;1.85;;
21254;SDS011;10785;50.674;17.954;2023-04-01T03:21:43;1.25;;;1.17;;
21254;SDS011;10785;50.674;17.954;2023-04-01T03:24:11;2.58;;;2.38;;
21254;SDS011;10785;50.674;17.954;2023-04-01T03:26:40;3.58;;;1.63;;
21254;SDS011;10785;50.674;17.954;2023-04-01T03:29:08;4.38;;;2.03;;
21254;SDS011;10785;50.674;17.954;2023-04-01T03:31:39;1.60;;;1.50;;
21254;SDS011;10785;50.674;17.954;2023-04-01T03:34:08;1.42;;;1.33;;
21254;SDS011;10785;50.674;17.954;2023-04-01T03:36:37;1.92;;;1.83;;
21254;SDS011;10785;50.674;17.954;2023-04-01T03:39:05;1.65;;;1.13;;
21254;SDS011;10785;50.674;17.954;2023-04-01T03:41:40;1.02;;;1.00;;
21254;SDS011;10785;50.674;17.954;2023-04-01T03:44:08;0.70;;;0.70;;
21254;SDS011;10785;50.674;17.954;2023-04-01T03:46:39;2.15;;;1.95;;
21254;SDS011;10785;50.674;17.954;2023-04-01T03:49:08;1.58;;;1.48;;
21254;SDS011;10785;50.674;17.954;2023-04-01T03:51:38;1.13;;;1.13;;
21254;SDS011;10785;50.674;17.954;2023-04-01T03:54:07;2.40;;;1.35;;
21254;SDS011;10785;50.674;17.954;2023-04-01T03:56:37;0.90;;;0.90;;
21254;SDS011;10785;50.674;17.954;2023-04-01T03:59:06;0.88;;;0.88;;
21254;SDS011;10785;50.674;17.954;2023-04-01T04:01:35;1.13;;;1.13;;
21254;SDS011;10785;50.674;17.954;2023-04-01T04:04:05;5.35;;;2.25;;
21254;SDS011;10785;50.674;17.954;2023-04-01T04:06:34;1.48;;;1.02;;
21254;SDS011;10785;50.674;17.954;2023-04-01T04:09:03;0.95;;;0.95;;
21254;SDS011;10785;50.674;17.954;2023-04-01T04:11:32;1.75;;;1.23;;
21254;SDS011;10785;50.674;17.954;2023-04-01T04:14:01;2.42;;;1.13;;
21254;SDS011;10785;50.674;17.954;2023-04-01T04:16:31;1.85;;;1.75;;
21254;SDS011;10785;50.674;17.954;2023-04-01T04:19:04;2.42;;;1.13;;
21254;SDS011;10785;50.674;17.954;2023-04-01T04:21:34;1.27;;;1.27;;
21254;SDS011;10785;50.674;17.954;2023-04-01T04:24:03;0.90;;;0.90;;
21254;SDS011;10785;50.674;17.954;2023-04-01T04:26:52;1.00;;;1.00;;
21254;SDS011;10785;50.674;17.954;2023-04-01T04:29:20;1.95;;;1.05;;
21254;SDS011;10785;50.674;17.954;2023-04-01T04:31:50;0.73;;;0.73;;
21254;SDS011;10785;50.674;17.954;2023-04-01T04:34:20;0.77;;;0.77;;
21254;SDS011;10785;50.674;17.954;2023-04-01T04:36:49;4.30;;;1.90;;
21254;SDS011;10785;50.674;17.954;2023-04-01T04:39:19;1.25;;;1.15;;
21254;SDS011;10785;50.674;17.954;2023-04-01T04:41:48;2.75;;;1.10;;
21254;SDS011;10785;50.674;17.954;2023-04-01T04:44:18;1.33;;;1.33;;
21254;SDS011;10785;50.674;17.954;2023-04-01T04:46:46;0.88;;;0.85;;
21254;SDS011;10785;50.674;17.954;2023-04-01T04:49:15;3.00;;;2.03;;
21254;SDS011;10785;50.674;17.954;2023-04-01T04:51:45;1.13;;;1.02;;
21254;SDS011;10785;50.674;17.954;2023-04-01T04:54:16;3.22;;;1.85;;
21254;SDS011;10785;50.674;17.954;2023-04-01T04:56:57;1.20;;;1.17;;
21254;SDS011;10785;50.674;17.954;2023-04-01T04:59:29;1.17;;;1.10;;
21254;SDS011;10785;50.674;17.954;2023-04-01T05:02:04;1.13;;;1.02;;
21254;SDS011;10785;50.674;17.954;2023-04-01T05:04:34;0.77;;;0.77;;
21254;SDS011;10785;50.674;17.954;2023-04-01T05:07:06;1.00;;;1.00;;
21254;SDS011;10785;50.674;17.954;2023-04-01T05:09:35;1.00;;;1.00;;
21254;SDS011;10785;50.674;17.954;2023-04-01T05:12:04;0.90;;;0.90;;
21254;SDS011;10785;50.674;17.954;2023-04-01T05:14:53;2.15;;;1.95;;
21254;SDS011;10785;50.674;17.954;2023-04-01T05:17:21;1.30;;;1.25;;
21254;SDS011;10785;50.674;17.954;2023-04-01T05:19:51;1.50;;;1.40;;
21254;SDS011;10785;50.674;17.954;2023-04-01T05:22:21;1.15;;;1.15;;
21254;SDS011;10785;50.674;17.954;2023-04-01T05:24:50;1.10;;;1.02;;
21254;SDS011;10785;50.674;17.954;2023-04-01T05:27:19;1.42;;;1.30;;
21254;SDS011;10785;50.674;17.954;2023-04-01T05:29:48;1.23;;;1.10;;
21254;SDS011;10785;50.674;17.954;2023-04-01T05:32:38;1.08;;;1.08;;
21254;SDS011;10785;50.674;17.954;2023-04-01T05:35:07;1.23;;;1.13;;
21254;SDS011;10785;50.674;17.954;2023-04-01T05:37:37;2.40;;;2.05;;
21254;SDS011;10785;50.674;17.954;2023-04-01T05:40:06;4.15;;;1.35;;
21254;SDS011;10785;50.674;17.954;2023-04-01T05:42:36;1.23;;;1.23;;
21254;SDS011;10785;50.674;17.954;2023-04-01T05:45:05;1.10;;;1.10;;
21254;SDS011;10785;50.674;17.954;2023-04-01T05:48:04;2.13;;;1.75;;
21254;SDS011;10785;50.674;17.954;2023-04-01T05:50:39;1.15;;;1.15;;
21254;SDS011;10785;50.674;17.954;2023-04-01T05:53:11;1.45;;;1.35;;
21254;SDS011;10785;50.674;17.954;2023-04-01T05:55:42;2.30;;;1.95;;
21254;SDS011;10785;50.674;17.954;2023-04-01T05:58:12;1.10;;;1.02;;
21254;SDS011;10785;50.674;17.954;2023-04-01T06:00:44;1.35;;;1.33;;
21254;SDS011;10785;50.674;17.954;2023-04-01T06:03:15;1.80;;;1.60;;
21254;SDS011;10785;50.674;17.954;2023-04-01T06:05:44;5.13;;;1.73;;
21254;SDS011;10785;50.674;17.954;2023-04-01T06:08:15;1.52;;;1.42;;
21254;SDS011;10785;50.674;17.954;2023-04-01T06:10:50;0.82;;;0.82;;
21254;SDS011;10785;50.674;17.954;2023-04-01T06:13:31;2.05;;;1.85;;
21254;SDS011;10785;50.674;17.954;2023-04-01T06:16:11;3.58;;;1.77;;
21254;SDS011;10785;50.674;17.954;2023-04-01T06:18:55;0.95;;;0.95;;
21254;SDS011;10785;50.674;17.954;2023-04-01T06:25:07;1.40;;;1.30;;
21254;SDS011;10785;50.674;17.954;2023-04-01T06:27:58;5.07;;;2.20;;
21254;SDS011;10785;50.674;17.954;2023-04-01T06:30:38;1.42;;;1.33;;
21254;SDS011;10785;50.674;17.954;2023-04-01T06:33:18;1.15;;;1.08;;
21254;SDS011;10785;50.674;17.954;2023-04-01T06:36:02;3.58;;;1.85;;
21254;SDS011;10785;50.674;17.954;2023-04-01T06:39:11;1.20;;;1.15;;
21254;SDS011;10785;50.674;17.954;2023-04-01T06:42:04;0.77;;;0.77;;
21254;SDS011;10785;50.674;17.954;2023-04-01T06:45:05;1.08;;;1.08;;
21254;SDS011;10785;50.674;17.954;2023-04-01T06:48:08;0.73;;;0.73;;
21254;SDS011;10785;50.674;17.954;2023-04-01T06:51:06;1.13;;;1.13;;
21254;SDS011;10785;50.674;17.954;2023-04-01T06:54:04;0.85;;;0.85;;
21254;SDS011;10785;50.674;17.954;2023-04-01T06:57:05;0.80;;;0.80;;
21254;SDS011;10785;50.674;17.954;2023-04-01T06:59:46;0.93;;;0.93;;
21254;SDS011;10785;50.674;17.954;2023-04-01T07:02:19;1.63;;;1.55;;
21254;SDS011;10785;50.674;17.954;2023-04-01T07:04:53;3.85;;;2.17;;
21254;SDS011;10785;50.674;17.954;2023-04-01T07:07:27;0.80;;;0.80;;
21254;SDS011;10785;50.674;17.954;2023-04-01T07:10:05;1.15;;;1.10;;
21254;SDS011;10785;50.674;17.954;2023-04-01T07:29:20;1.27;;;1.27;;
21254;SDS011;10785;50.674;17.954;2023-04-01T07:32:07;1.35;;;1.25;;
21254;SDS011;10785;50.674;17.954;2023-04-01T07:34:45;2.60;;;1.50;;
21254;SDS011;10785;50.674;17.954;2023-04-01T07:37:26;1.13;;;1.08;;
21254;SDS011;10785;50.674;17.954;2023-04-01T07:40:01;0.98;;;0.85;;
21254;SDS011;10785;50.674;17.954;2023-04-01T07:42:44;1.00;;;1.00;;
21254;SDS011;10785;50.674;17.954;2023-04-01T07:45:26;1.23;;;1.00;;
21254;SDS011;10785;50.674;17.954;2023-04-01T07:48:01;1.40;;;0.90;;
21254;SDS011;10785;50.674;17.954;2023-04-01T07:50:41;0.90;;;0.90;;
21254;SDS011;10785;50.674;17.954;2023-04-01T07:53:19;0.82;;;0.82;;
21254;SDS011;10785;50.674;17.954;2023-04-01T07:55:58;2.60;;;1.48;;
21254;SDS011;10785;50.674;17.954;2023-04-01T07:58:38;0.88;;;0.88;;
21254;SDS011;10785;50.674;17.954;2023-04-01T08:01:35;1.27;;;1.05;;
21254;SDS011;10785;50.674;17.954;2023-04-01T08:04:25;1.65;;;1.55;;
21254;SDS011;10785;50.674;17.954;2023-04-01T08:07:06;2.00;;;1.90;;
21254;SDS011;10785;50.674;17.954;2023-04-01T08:09:48;4.05;;;1.70;;
21254;SDS011;10785;50.674;17.954;2023-04-01T08:12:45;2.03;;;1.85;;
21254;SDS011;10785;50.674;17.954;2023-04-01T08:15:41;1.92;;;1.83;;
21254;SDS011;10785;50.674;17.954;2023-04-01T08:18:40;1.23;;;1.13;;
21254;SDS011;10785;50.674;17.954;2023-04-01T08:21:17;1.95;;;1.75;;
21254;SDS011;10785;50.674;17.954;2023-04-01T08:23:51;1.15;;;1.15;;
21254;SDS011;10785;50.674;17.954;2023-04-01T08:26:26;1.05;;;1.00;;
21254;SDS011;10785;50.674;17.954;2023-04-01T08:29:02;1.17;;;1.10;;
21254;SDS011;10785;50.674;17.954;2023-04-01T08:31:35;0.57;;;0.57;;
21254;SDS011;10785;50.674;17.954;2023-04-01T08:34:13;1.17;;;1.10;;
21254;SDS011;10785;50.674;17.954;2023-04-01T08:36:47;1.13;;;0.85;;
21254;SDS011;10785;50.674;17.954;2023-04-01T08:39:22;1.40;;;1.30;;
21254;SDS011;10785;50.674;17.954;2023-04-01T08:48:36;0.60;;;0.60;;
21254;SDS011;10785;50.674;17.954;2023-04-01T08:54:38;1.08;;;1.05;;
21254;SDS011;10785;50.674;17.954;2023-04-01T08:57:53;2.88;;;1.42;;
21254;SDS011;10785;50.674;17.954;2023-04-01T09:01:03;1.67;;;1.55;;
21254;SDS011;10785;50.674;17.954;2023-04-01T09:03:52;0.93;;;0.93;;
21254;SDS011;10785;50.674;17.954;2023-04-01T09:06:35;1.42;;;1.33;;
21254;SDS011;10785;50.674;17.954;2023-04-01T09:09:21;1.00;;;1.00;;
21254;SDS011;10785;50.674;17.954;2023-04-01T09:15:18;2.58;;;1.88;;
21254;SDS011;10785;50.674;17.954;2023-04-01T09:24:42;1.58;;;1.40;;
21254;SDS011;10785;50.674;17.954;2023-04-01T09:27:27;1.05;;;1.05;;
21254;SDS011;10785;50.674;17.954;2023-04-01T09:33:15;1.35;;;1.23;;
21254;SDS011;10785;50.674;17.954;2023-04-01T09:36:07;1.23;;;1.13;;
21254;SDS011;10785;50.674;17.954;2023-04-01T09:39:04;1.70;;;1.63;;
21254;SDS011;10785;50.674;17.954;2023-04-01T09:42:02;2.42;;;1.48;;
21254;SDS011;10785;50.674;17.954;2023-04-01T09:45:05;1.38;;;1.27;;
21254;SDS011;10785;50.674;17.954;2023-04-01T09:47:50;1.27;;;1.13;;
21254;SDS011;10785;50.674;17.954;2023-04-01T09:50:32;2.67;;;1.27;;
21254;SDS011;10785;50.674;17.954;2023-04-01T09:53:14;1.25;;;0.98;;
21254;SDS011;10785;50.674;17.954;2023-04-01T09:56:03;0.63;;;0.63;;
21254;SDS011;10785;50.674;17.954;2023-04-01T10:02:36;2.35;;;1.80;;
21254;SDS011;10785;50.674;17.954;2023-04-01T10:05:33;0.93;;;0.93;;
21254;SDS011;10785;50.674;17.954;2023-04-01T10:11:55;1.85;;;1.23;;
21254;SDS011;10785;50.674;17.954;2023-04-01T10:18:21;2.53;;;1.33;;
21254;SDS011;10785;50.674;17.954;2023-04-01T10:21:13;0.90;;;0.88;;
21254;SDS011;10785;50.674;17.954;2023-04-01T10:24:20;1.88;;;0.80;;
21254;SDS011;10785;50.674;17.954;2023-04-01T10:27:21;1.15;;;1.08;;
21254;SDS011;10785;50.674;17.954;2023-04-01T10:30:37;0.73;;;0.60;;
21254;SDS011;10785;50.674;17.954;2023-04-01T10:33:40;0.60;;;0.60;;
21254;SDS011;10785;50.674;17.954;2023-04-01T10:46:21;0.50;;;0.50;;
21254;SDS011;10785;50.674;17.954;2023-04-01T10:55:28;1.00;;;0.90;;
21254;SDS011;10785;50.674;17.954;2023-04-01T10:58:35;0.63;;;0.63;;
21254;SDS011;10785;50.674;17.954;2023-04-01T11:02:22;1.13;;;1.10;;
21254;SDS011;10785;50.674;17.954;2023-04-01T11:12:25;0.90;;;0.90;;
21254;SDS011;10785;50.674;17.954;2023-04-01T11:15:26;0.50;;;0.50;;
21254;SDS011;10785;50.674;17.954;2023-04-01T11:21:22;1.38;;;0.60;;
21254;SDS011;10785;50.674;17.954;2023-04-01T11:24:27;0.80;;;0.80;;
21254;SDS011;10785;50.674;17.954;2023-04-01T11:27:40;0.60;;;0.60;;
21254;SDS011;10785;50.674;17.954;2023-04-01T11:30:21;1.38;;;1.27;;
21254;SDS011;10785;50.674;17.954;2023-04-01T11:32:59;1.00;;;0.68;;
21254;SDS011;10785;50.674;17.954;2023-04-01T11:38:43;11.13;;;1.70;;
21254;SDS011;10785;50.674;17.954;2023-04-01T11:41:38;4.68;;;1.88;;
21254;SDS011;10785;50.674;17.954;2023-04-01T11:44:33;1.75;;;1.35;;
21254;SDS011;10785;50.674;17.954;2023-04-01T11:47:18;1.80;;;1.67;;
21254;SDS011;10785;50.674;17.954;2023-04-01T11:49:56;1.95;;;0.98;;
21254;SDS011;10785;50.674;17.954;2023-04-01T11:52:51;2.85;;;1.88;;
21254;SDS011;10785;50.674;17.954;2023-04-01T11:55:35;0.98;;;0.98;;
21254;SDS011;10785;50.674;17.954;2023-04-01T11:58:23;0.80;;;0.80;;
21254;SDS011;10785;50.674;17.954;2023-04-01T12:01:19;0.80;;;0.80;;
21254;SDS011;10785;50.674;17.954;2023-04-01T12:04:09;0.40;;;0.40;;
21254;SDS011;10785;50.674;17.954;2023-04-01T12:07:02;0.90;;;0.80;;
21254;SDS011;10785;50.674;17.954;2023-04-01T12:09:44;0.98;;;0.90;;
21254;SDS011;10785;50.674;17.954;2023-04-01T12:12:19;1.30;;;0.60;;
21254;SDS011;10785;50.674;17.954;2023-04-01T12:14:59;0.80;;;0.77;;
21254;SDS011;10785;50.674;17.954;2023-04-01T12:17:39;0.52;;;0.52;;
21254;SDS011;10785;50.674;17.954;2023-04-01T12:20:34;0.68;;;0.68;;
21254;SDS011;10785;50.674;17.954;2023-04-01T12:23:15;0.55;;;0.40;;
21254;SDS011;10785;50.674;17.954;2023-04-01T12:26:01;0.50;;;0.50;;
21254;SDS011;10785;50.674;17.954;2023-04-01T12:29:06;0.95;;;0.90;;
21254;SDS011;10785;50.674;17.954;2023-04-01T12:32:05;0.90;;;0.90;;
21254;SDS011;10785;50.674;17.954;2023-04-01T12:34:55;0.73;;;0.73;;
21254;SDS011;10785;50.674;17.954;2023-04-01T12:37:34;1.67;;;1.58;;
21254;SDS011;10785;50.674;17.954;2023-04-01T12:43:04;0.50;;;0.50;;
21254;SDS011;10785;50.674;17.954;2023-04-01T12:45:45;0.75;;;0.75;;
21254;SDS011;10785;50.674;17.954;2023-04-01T12:48:26;31.75;;;2.00;;
21254;SDS011;10785;50.674;17.954;2023-04-01T12:51:28;3.78;;;1.08;;
21254;SDS011;10785;50.674;17.954;2023-04-01T12:54:25;1.15;;;1.15;;
21254;SDS011;10785;50.674;17.954;2023-04-01T12:57:21;0.40;;;0.40;;
21254;SDS011;10785;50.674;17.954;2023-04-01T13:00:10;1.83;;;0.68;;
21254;SDS011;10785;50.674;17.954;2023-04-01T13:02:55;1.00;;;0.90;;
21254;SDS011;10785;50.674;17.954;2023-04-01T13:05:39;0.40;;;0.40;;
21254;SDS011;10785;50.674;17.954;2023-04-01T13:08:32;0.98;;;0.98;;
21254;SDS011;10785;50.674;17.954;2023-04-01T13:11:13;0.60;;;0.60;;
21254;SDS011;10785;50.674;17.954;2023-04-01T13:14:00;0.50;;;0.50;;
21254;SDS011;10785;50.674;17.954;2023-04-01T13:16:58;0.60;;;0.60;;
21254;SDS011;10785;50.674;17.954;2023-04-01T13:19:36;0.50;;;0.50;;
21254;SDS011;10785;50.674;17.954;2023-04-01T13:22:18;1.20;;;0.77;;
21254;SDS011;10785;50.674;17.954;2023-04-01T13:24:55;1.45;;;1.35;;
21254;SDS011;10785;50.674;17.954;2023-04-01T13:27:30;1.08;;;1.00;;
21254;SDS011;10785;50.674;17.954;2023-04-01T13:30:11;1.92;;;1.55;;
21254;SDS011;10785;50.674;17.954;2023-04-01T13:32:55;1.05;;;0.95;;
21254;SDS011;10785;50.674;17.954;2023-04-01T13:35:31;2.50;;;1.20;;
21254;SDS011;10785;50.674;17.954;2023-04-01T13:38:17;0.60;;;0.60;;
21254;SDS011;10785;50.674;17.954;2023-04-01T13:40:59;0.95;;;0.85;;
21254;SDS011;10785;50.674;17.954;2023-04-01T13:43:40;0.50;;;0.50;;
21254;SDS011;10785;50.674;17.954;2023-04-01T13:46:20;1.10;;;0.75;;
21254;SDS011;10785;50.674;17.954;2023-04-01T13:49:17;1.08;;;0.90;;
21254;SDS011;10785;50.674;17.954;2023-04-01T13:52:04;0.50;;;0.50;;
21254;SDS011;10785;50.674;17.954;2023-04-01T13:54:45;1.05;;;0.80;;
21254;SDS011;10785;50.674;17.954;2023-04-01T13:57:47;4.88;;;1.00;;
21254;SDS011;10785;50.674;17.954;2023-04-01T14:00:35;0.60;;;0.60;;
21254;SDS011;10785;50.674;17.954;2023-04-01T14:03:20;0.70;;;0.70;;
21254;SDS011;10785;50.674;17.954;2023-04-01T14:06:16;1.92;;;1.30;;
21254;SDS011;10785;50.674;17.954;2023-04-01T14:09:01;1.25;;;1.23;;
21254;SDS011;10785;50.674;17.954;2023-04-01T14:11:50;0.60;;;0.60;;
21254;SDS011;10785;50.674;17.954;2023-04-01T14:14:29;1.40;;;1.30;;
21254;SDS011;10785;50.674;17.954;2023-04-01T14:17:10;0.52;;;0.52;;
21254;SDS011;10785;50.674;17.954;2023-04-01T14:19:58;0.60;;;0.60;;
21254;SDS011;10785;50.674;17.954;2023-04-01T14:22:46;1.23;;;0.98;;
21254;SDS011;10785;50.674;17.954;2023-04-01T14:25:30;0.50;;;0.50;;
21254;SDS011;10785;50.674;17.954;2023-04-01T14:28:16;0.68;;;0.68;;
21254;SDS011;10785;50.674;17.954;2023-04-01T14:34:09;0.55;;;0.55;;
21254;SDS011;10785;50.674;17.954;2023-04-01T14:36:51;0.50;;;0.50;;
21254;SDS011;10785;50.674;17.954;2023-04-01T14:42:38;0.60;;;0.60;;
21254;SDS011;10785;50.674;17.954;2023-04-01T14:48:37;1.02;;;0.85;;
21254;SDS011;10785;50.674;17.954;2023-04-01T14:51:18;1.35;;;1.25;;
21254;SDS011;10785;50.674;17.954;2023-04-01T14:54:01;0.55;;;0.55;;
21254;SDS011;10785;50.674;17.954;2023-04-01T14:56:37;0.50;;;0.50;;
21254;SDS011;10785;50.674;17.954;2023-04-01T14:59:13;0.75;;;0.75;;
21254;SDS011;10785;50.674;17.954;2023-04-01T15:01:47;0.85;;;0.80;;
21254;SDS011;10785;50.674;17.954;2023-04-01T15:04:34;0.90;;;0.90;;
21254;SDS011;10785;50.674;17.954;2023-04-01T15:07:23;0.85;;;0.85;;
21254;SDS011;10785;50.674;17.954;2023-04-01T15:10:22;0.40;;;0.40;;
21254;SDS011;10785;50.674;17.954;2023-04-01T15:13:05;1.23;;;0.93;;
21254;SDS011;10785;50.674;17.954;2023-04-01T15:15:46;1.17;;;0.90;;
21254;SDS011;10785;50.674;17.954;2023-04-01T15:18:31;0.63;;;0.63;;
21254;SDS011;10785;50.674;17.954;2023-04-01T15:21:17;0.90;;;0.90;;
21254;SDS011;10785;50.674;17.954;2023-04-01T15:24:03;0.50;;;0.50;;
21254;SDS011;10785;50.674;17.954;2023-04-01T15:29:43;0.95;;;0.95;;
21254;SDS011;10785;50.674;17.954;2023-04-01T15:32:29;0.63;;;0.63;;
21254;SDS011;10785;50.674;17.954;2023-04-01T15:35:14;0.80;;;0.80;;
21254;SDS011;10785;50.674;17.954;2023-04-01T15:37:54;0.55;;;0.55;;
21254;SDS011;10785;50.674;17.954;2023-04-01T15:40:28;1.35;;;1.25;;
21254;SDS011;10785;50.674;17.954;2023-04-01T15:43:06;0.77;;;0.77;;
21254;SDS011;10785;50.674;17.954;2023-04-01T15:45:44;1.33;;;1.23;;
21254;SDS011;10785;50.674;17.954;2023-04-01T15:48:23;2.78;;;1.20;;
21254;SDS011;10785;50.674;17.954;2023-04-01T15:51:07;0.50;;;0.50;;
21254;SDS011;10785;50.674;17.954;2023-04-01T15:53:53;0.50;;;0.50;;
21254;SDS011;10785;50.674;17.954;2023-04-01T15:56:51;1.40;;;0.95;;
21254;SDS011;10785;50.674;17.954;2023-04-01T15:59:28;0.70;;;0.70;;
21254;SDS011;10785;50.674;17.954;2023-04-01T16:02:17;1.02;;;1.02;;
21254;SDS011;10785;50.674;17.954;2023-04-01T16:04:52;0.82;;;0.65;;
21254;SDS011;10785;50.674;17.954;2023-04-01T16:07:30;0.50;;;0.50;;
21254;SDS011;10785;50.674;17.954;2023-04-01T16:10:17;0.70;;;0.70;;
21254;SDS011;10785;50.674;17.954;2023-04-01T16:13:01;0.80;;;0.80;;
21254;SDS011;10785;50.674;17.954;2023-04-01T16:15:42;0.88;;;0.77;;
21254;SDS011;10785;50.674;17.954;2023-04-01T16:21:21;0.70;;;0.70;;
21254;SDS011;10785;50.674;17.954;2023-04-01T16:24:05;0.50;;;0.50;;
21254;SDS011;10785;50.674;17.954;2023-04-01T16:26:44;0.60;;;0.60;;
21254;SDS011;10785;50.674;17.954;2023-04-01T16:29:22;1.15;;;1.08;;
21254;SDS011;10785;50.674;17.954;2023-04-01T16:32:01;1.45;;;1.08;;
21254;SDS011;10785;50.674;17.954;2023-04-01T16:34:39;1.20;;;1.20;;
21254;SDS011;10785;50.674;17.954;2023-04-01T16:37:13;0.80;;;0.80;;
21254;SDS011;10785;50.674;17.954;2023-04-01T16:39:49;0.70;;;0.70;;
21254;SDS011;10785;50.674;17.954;2023-04-01T16:42:32;0.80;;;0.80;;
21254;SDS011;10785;50.674;17.954;2023-04-01T16:45:17;1.40;;;0.70;;
21254;SDS011;10785;50.674;17.954;2023-04-01T16:47:53;0.75;;;0.75;;
21254;SDS011;10785;50.674;17.954;2023-04-01T16:50:25;1.65;;;1.55;;
21254;SDS011;10785;50.674;17.954;2023-04-01T16:52:59;0.60;;;0.60;;
21254;SDS011;10785;50.674;17.954;2023-04-01T16:55:43;0.80;;;0.80;;
21254;SDS011;10785;50.674;17.954;2023-04-01T16:58:19;7.47;;;1.83;;
21254;SDS011;10785;50.674;17.954;2023-04-01T17:00:55;1.23;;;1.15;;
21254;SDS011;10785;50.674;17.954;2023-04-01T17:03:29;0.95;;;0.90;;
21254;SDS011;10785;50.674;17.954;2023-04-01T17:06:06;1.15;;;1.15;;
21254;SDS011;10785;50.674;17.954;2023-04-01T17:11:55;2.08;;;1.98;;
21254;SDS011;10785;50.674;17.954;2023-04-01T17:14:30;2.65;;;2.45;;
21254;SDS011;10785;50.674;17.954;2023-04-01T17:17:15;1.17;;;1.10;;
21254;SDS011;10785;50.674;17.954;2023-04-01T17:19:55;0.50;;;0.50;;
21254;SDS011;10785;50.674;17.954;2023-04-01T17:22:32;0.70;;;0.70;;
21254;SDS011;10785;50.674;17.954;2023-04-01T17:25:12;0.82;;;0.82;;
21254;SDS011;10785;50.674;17.954;2023-04-01T17:40:32;1.98;;;1.40;;
21254;SDS011;10785;50.674;17.954;2023-04-01T17:43:12;1.55;;;1.48;;
21254;SDS011;10785;50.674;17.954;2023-04-01T17:45:51;1.90;;;1.55;;
21254;SDS011;10785;50.674;17.954;2023-04-01T17:48:24;1.27;;;0.98;;
21254;SDS011;10785;50.674;17.954;2023-04-01T17:51:16;2.40;;;1.38;;
21254;SDS011;10785;50.674;17.954;2023-04-01T17:53:54;1.65;;;1.55;;
21254;SDS011;10785;50.674;17.954;2023-04-01T18:06:06;2.30;;;2.10;;
21254;SDS011;10785;50.674;17.954;2023-04-01T18:08:44;5.50;;;3.60;;
21254;SDS011;10785;50.674;17.954;2023-04-01T18:11:31;13.50;;;3.95;;
21254;SDS011;10785;50.674;17.954;2023-04-01T18:14:14;11.93;;;5.65;;
21254;SDS011;10785;50.674;17.954;2023-04-01T18:17:27;4.22;;;3.92;;
21254;SDS011;10785;50.674;17.954;2023-04-01T18:20:18;1.20;;;1.15;;
21254;SDS011;10785;50.674;17.954;2023-04-01T18:22:55;5.90;;;2.75;;
21254;SDS011;10785;50.674;17.954;2023-04-01T18:25:27;4.40;;;3.38;;
21254;SDS011;10785;50.674;17.954;2023-04-01T18:28:12;5.72;;;5.22;;
21254;SDS011;10785;50.674;17.954;2023-04-01T18:30:50;6.50;;;3.72;;
21254;SDS011;10785;50.674;17.954;2023-04-01T18:33:23;3.42;;;3.13;;
21254;SDS011;10785;50.674;17.954;2023-04-01T18:35:58;2.90;;;2.60;;
21254;SDS011;10785;50.674;17.954;2023-04-01T18:38:40;3.85;;;3.00;;
21254;SDS011;10785;50.674;17.954;2023-04-01T18:41:14;3.25;;;2.88;;
21254;SDS011;10785;50.674;17.954;2023-04-01T18:43:48;3.30;;;2.92;;
21254;SDS011;10785;50.674;17.954;2023-04-01T18:46:30;2.35;;;2.25;;
21254;SDS011;10785;50.674;17.954;2023-04-01T18:49:13;3.78;;;2.75;;
21254;SDS011;10785;50.674;17.954;2023-04-01T18:51:49;4.82;;;3.88;;
21254;SDS011;10785;50.674;17.954;2023-04-01T18:54:29;7.93;;;3.55;;
21254;SDS011;10785;50.674;17.954;2023-04-01T18:57:00;3.22;;;2.92;;
21254;SDS011;10785;50.674;17.954;2023-04-01T18:59:32;2.47;;;2.20;;
21254;SDS011;10785;50.674;17.954;2023-04-01T19:02:10;2.85;;;2.65;;